KLM249 EHAM-BIKF
Flight info
| Callsign | KLM249 |
|---|---|
| Flight time | N/A |
| Altitude | 38000 |
| Route | BERGI L602 SUPUR P1 GODOS DCT ROXAT DCT BAZNA DCT ERLOT DCT ROBEM DCT ORSUM DCT BALIX/M082F380 DCT BREKI DCT BASLU BASLU3K |
| Aircraft | B77W/H-SDE1E2E3FGHIJ2J3J4J5M1RWXY/LB1D1 |
Departure
| Time | 2026-04-28 18:14 |
|---|---|
| Airport | Amsterdam Airport Schiphol (EHAM) |
Arrival
| Time | N/A |
|---|---|
| Airport | Keflavik International Airport (BIKF) |
| Time | Latitude | Longitude | Altitude | Speed | Heading |
|---|---|---|---|---|---|
| 2026-04-28 17:35 | 52.31383 | 4.76727 | 12 ft | 0 kts | 122° |
| 2026-04-28 17:54 | 52.31386 | 4.76719 | 12 ft | 3 kts | 122° |
| 2026-04-28 17:54 | 52.31396 | 4.76694 | 13 ft | 3 kts | 122° |
| 2026-04-28 17:55 | 52.31405 | 4.76669 | 16 ft | 3 kts | 122° |
| 2026-04-28 17:55 | 52.31415 | 4.76645 | 18 ft | 3 kts | 107° |
| 2026-04-28 17:55 | 52.31417 | 4.76616 | 17 ft | 3 kts | 73° |
| 2026-04-28 17:55 | 52.31409 | 4.76589 | 17 ft | 3 kts | 39° |
| 2026-04-28 17:56 | 52.31408 | 4.76587 | 17 ft | 0 kts | 35° |
| 2026-04-28 17:59 | 52.31408 | 4.76588 | 17 ft | 1 kts | 35° |
| 2026-04-28 17:59 | 52.31423 | 4.76606 | 17 ft | 4 kts | 38° |
| 2026-04-28 17:59 | 52.31474 | 4.76656 | 15 ft | 12 kts | 19° |
| 2026-04-28 18:00 | 52.31518 | 4.76658 | 16 ft | 1 kts | 344° |
| 2026-04-28 18:00 | 52.31544 | 4.76600 | 19 ft | 8 kts | 282° |
| 2026-04-28 18:00 | 52.31549 | 4.76505 | 23 ft | 9 kts | 271° |
| 2026-04-28 18:00 | 52.31545 | 4.76390 | 26 ft | 13 kts | 266° |
| 2026-04-28 18:01 | 52.31540 | 4.76230 | 21 ft | 14 kts | 267° |
| 2026-04-28 18:01 | 52.31537 | 4.76118 | 22 ft | 7 kts | 267° |
| 2026-04-28 18:01 | 52.31535 | 4.76048 | 23 ft | 6 kts | 268° |
| 2026-04-28 18:01 | 52.31533 | 4.75973 | 27 ft | 12 kts | 267° |
| 2026-04-28 18:02 | 52.31527 | 4.75792 | 18 ft | 18 kts | 267° |
| 2026-04-28 18:02 | 52.31518 | 4.75569 | 17 ft | 20 kts | 266° |
| 2026-04-28 18:02 | 52.31510 | 4.75322 | 14 ft | 24 kts | 266° |
| 2026-04-28 18:02 | 52.31500 | 4.75046 | 17 ft | 24 kts | 267° |
| 2026-04-28 18:03 | 52.31492 | 4.74793 | 19 ft | 21 kts | 266° |
| 2026-04-28 18:03 | 52.31484 | 4.74591 | 22 ft | 15 kts | 266° |
| 2026-04-28 18:03 | 52.31479 | 4.74417 | 24 ft | 17 kts | 270° |
| 2026-04-28 18:03 | 52.31544 | 4.74296 | 19 ft | 15 kts | 357° |
| 2026-04-28 18:04 | 52.31649 | 4.74303 | 21 ft | 16 kts | 4° |
| 2026-04-28 18:04 | 52.31787 | 4.74317 | 16 ft | 23 kts | 3° |
| 2026-04-28 18:04 | 52.31944 | 4.74330 | 12 ft | 20 kts | 2° |
| 2026-04-28 18:04 | 52.32030 | 4.74201 | 16 ft | 18 kts | 278° |
| 2026-04-28 18:05 | 52.32038 | 4.74032 | 18 ft | 13 kts | 273° |
| 2026-04-28 18:05 | 52.32042 | 4.73936 | 21 ft | 13 kts | 274° |
| 2026-04-28 18:05 | 52.32050 | 4.73715 | 24 ft | 22 kts | 273° |
| 2026-04-28 18:05 | 52.32064 | 4.73458 | 20 ft | 21 kts | 283° |
| 2026-04-28 18:06 | 52.32147 | 4.73271 | 13 ft | 22 kts | 317° |
| 2026-04-28 18:06 | 52.32266 | 4.73104 | 6 ft | 23 kts | 320° |
| 2026-04-28 18:06 | 52.32390 | 4.72929 | 3 ft | 23 kts | 319° |
| 2026-04-28 18:06 | 52.32512 | 4.72757 | 2 ft | 23 kts | 319° |
| 2026-04-28 18:07 | 52.32588 | 4.72651 | 2 ft | 7 kts | 320° |
| 2026-04-28 18:07 | 52.32628 | 4.72595 | 3 ft | 13 kts | 318° |
| 2026-04-28 18:07 | 52.32713 | 4.72457 | 0 ft | 20 kts | 312° |
| 2026-04-28 18:07 | 52.32815 | 4.72268 | 5 ft | 21 kts | 311° |
| 2026-04-28 18:08 | 52.32908 | 4.72099 | 3 ft | 18 kts | 312° |
| 2026-04-28 18:08 | 52.32981 | 4.71961 | 4 ft | 16 kts | 311° |
| 2026-04-28 18:08 | 52.33068 | 4.71800 | 7 ft | 25 kts | 311° |
| 2026-04-28 18:08 | 52.33141 | 4.71561 | 13 ft | 24 kts | 262° |
| 2026-04-28 18:09 | 52.33036 | 4.71351 | 17 ft | 24 kts | 221° |
| 2026-04-28 18:09 | 52.32915 | 4.71177 | 20 ft | 22 kts | 221° |
| 2026-04-28 18:09 | 52.32861 | 4.70971 | 20 ft | 16 kts | 275° |
| 2026-04-28 18:09 | 52.32907 | 4.70888 | 22 ft | 9 kts | 354° |
| 2026-04-28 18:10 | 52.32924 | 4.70889 | 20 ft | 0 kts | 2° |
| 2026-04-28 18:13 | 52.32930 | 4.70889 | 20 ft | 0 kts | 3° |
| 2026-04-28 18:14 | 52.32996 | 4.70896 | 18 ft | 42 kts | 4° |
| 2026-04-28 18:14 | 52.33612 | 4.70951 | 27 ft | 140 kts | 1° |
| 2026-04-28 18:14 | 52.34895 | 4.71029 | 366 ft | 197 kts | 4° |
| 2026-04-28 18:14 | 52.36279 | 4.71111 | 614 ft | 209 kts | 7° |
| 2026-04-28 18:15 | 52.37689 | 4.71259 | 1679 ft | 205 kts | 8° |
| 2026-04-28 18:15 | 52.39177 | 4.71412 | 2344 ft | 228 kts | 9° |
| 2026-04-28 18:15 | 52.40826 | 4.71574 | 3050 ft | 243 kts | 8° |
| 2026-04-28 18:15 | 52.42553 | 4.71540 | 3860 ft | 256 kts | 352° |
| 2026-04-28 18:16 | 52.44185 | 4.70141 | 4642 ft | 276 kts | 321° |
| 2026-04-28 18:16 | 52.45559 | 4.67870 | 5370 ft | 286 kts | 317° |
| 2026-04-28 18:16 | 52.46955 | 4.65568 | 6434 ft | 282 kts | 317° |
| 2026-04-28 18:16 | 52.48353 | 4.63279 | 7409 ft | 287 kts | 318° |
| 2026-04-28 18:17 | 52.49761 | 4.60973 | 8368 ft | 287 kts | 317° |
| 2026-04-28 18:17 | 52.51193 | 4.58626 | 9189 ft | 294 kts | 318° |
| 2026-04-28 18:17 | 52.52757 | 4.56488 | 9972 ft | 293 kts | 329° |
| 2026-04-28 18:17 | 52.54518 | 4.54780 | 10784 ft | 299 kts | 334° |
| 2026-04-28 18:18 | 52.56397 | 4.53106 | 11092 ft | 325 kts | 335° |
| 2026-04-28 18:18 | 52.58479 | 4.51260 | 11350 ft | 355 kts | 334° |
| 2026-04-28 18:18 | 52.60690 | 4.49255 | 12006 ft | 370 kts | 334° |
| 2026-04-28 18:18 | 52.62188 | 4.47874 | 12638 ft | 372 kts | 333° |
| 2026-04-28 18:19 | 52.65227 | 4.45036 | 13312 ft | 378 kts | 333° |
| 2026-04-28 18:19 | 52.67519 | 4.42877 | 13288 ft | 380 kts | 332° |
| 2026-04-28 18:19 | 52.69809 | 4.40706 | 13298 ft | 379 kts | 334° |
| 2026-04-28 18:19 | 52.72093 | 4.38546 | 13292 ft | 376 kts | 334° |
| 2026-04-28 18:20 | 52.74281 | 4.36312 | 13292 ft | 378 kts | 325° |
| 2026-04-28 18:20 | 52.76030 | 4.33007 | 13290 ft | 388 kts | 303° |
| 2026-04-28 18:20 | 52.77315 | 4.29156 | 13299 ft | 387 kts | 304° |
| 2026-04-28 18:20 | 52.78934 | 4.25535 | 13312 ft | 388 kts | 315° |
| 2026-04-28 18:21 | 52.80778 | 4.22302 | 13319 ft | 386 kts | 317° |
| 2026-04-28 18:21 | 52.82617 | 4.19117 | 13318 ft | 380 kts | 316° |
| 2026-04-28 18:21 | 52.84429 | 4.15937 | 13316 ft | 380 kts | 316° |
| 2026-04-28 18:21 | 52.86243 | 4.12730 | 13544 ft | 385 kts | 316° |
| 2026-04-28 18:22 | 52.88080 | 4.09483 | 14669 ft | 387 kts | 316° |
| 2026-04-28 18:22 | 52.89908 | 4.06235 | 15647 ft | 392 kts | 315° |
| 2026-04-28 18:22 | 52.91772 | 4.02910 | 16715 ft | 396 kts | 315° |
| 2026-04-28 18:22 | 52.93667 | 3.99524 | 17633 ft | 404 kts | 315° |
| 2026-04-28 18:23 | 52.95587 | 3.96086 | 18654 ft | 408 kts | 315° |
| 2026-04-28 18:23 | 52.97528 | 3.92604 | 19510 ft | 414 kts | 316° |
| 2026-04-28 18:23 | 52.99496 | 3.89074 | 20383 ft | 419 kts | 316° |
| 2026-04-28 18:23 | 53.01483 | 3.85499 | 21264 ft | 422 kts | 316° |
| 2026-04-28 18:24 | 53.03485 | 3.81890 | 22141 ft | 427 kts | 316° |
| 2026-04-28 18:24 | 53.04823 | 3.79477 | 22695 ft | 430 kts | 316° |
| 2026-04-28 18:24 | 53.07560 | 3.74535 | 23763 ft | 437 kts | 316° |
| 2026-04-28 18:24 | 53.09634 | 3.70783 | 24442 ft | 443 kts | 317° |
| 2026-04-28 18:25 | 53.11706 | 3.67031 | 25087 ft | 448 kts | 317° |
| 2026-04-28 18:25 | 53.13828 | 3.63180 | 25717 ft | 453 kts | 317° |
| 2026-04-28 18:25 | 53.15976 | 3.59278 | 26340 ft | 458 kts | 317° |
| 2026-04-28 18:26 | 53.20338 | 3.51338 | 27408 ft | 471 kts | 318° |
| 2026-04-28 18:26 | 53.22554 | 3.47288 | 28083 ft | 473 kts | 318° |
| 2026-04-28 18:26 | 53.24744 | 3.43141 | 28719 ft | 479 kts | 315° |
| 2026-04-28 18:26 | 53.26733 | 3.38594 | 29267 ft | 490 kts | 309° |
| 2026-04-28 18:27 | 53.28553 | 3.33824 | 29748 ft | 496 kts | 308° |
| 2026-04-28 18:27 | 53.30390 | 3.28916 | 30227 ft | 500 kts | 308° |
| 2026-04-28 18:27 | 53.32273 | 3.23899 | 30678 ft | 504 kts | 308° |
| 2026-04-28 18:27 | 53.34131 | 3.19000 | 31117 ft | 506 kts | 309° |
| 2026-04-28 18:28 | 53.36028 | 3.14040 | 31586 ft | 506 kts | 309° |
| 2026-04-28 18:28 | 53.37925 | 3.09090 | 32201 ft | 503 kts | 309° |
| 2026-04-28 18:28 | 53.39809 | 3.04157 | 32760 ft | 502 kts | 309° |
| 2026-04-28 18:28 | 53.41751 | 2.99308 | 33292 ft | 497 kts | 313° |
| 2026-04-28 18:29 | 53.43904 | 2.94825 | 33851 ft | 490 kts | 317° |
| 2026-04-28 18:29 | 53.46116 | 2.90513 | 34441 ft | 487 kts | 318° |
| 2026-04-28 18:29 | 53.48342 | 2.86218 | 34904 ft | 485 kts | 317° |
| 2026-04-28 18:29 | 53.50533 | 2.81994 | 35269 ft | 486 kts | 317° |
| 2026-04-28 18:30 | 53.52754 | 2.77688 | 35630 ft | 486 kts | 317° |
| 2026-04-28 18:30 | 53.54224 | 2.74823 | 35890 ft | 486 kts | 316° |
| 2026-04-28 18:30 | 53.57166 | 2.69054 | 36426 ft | 485 kts | 316° |
| 2026-04-28 18:30 | 53.59358 | 2.64732 | 36809 ft | 485 kts | 315° |
| 2026-04-28 18:31 | 53.61547 | 2.60402 | 37187 ft | 485 kts | 315° |
| 2026-04-28 18:31 | 53.63729 | 2.56077 | 37492 ft | 485 kts | 315° |
| 2026-04-28 18:31 | 53.65917 | 2.51735 | 37788 ft | 486 kts | 315° |
| 2026-04-28 18:31 | 53.68101 | 2.47392 | 38156 ft | 485 kts | 314° |
| 2026-04-28 18:32 | 53.70287 | 2.43039 | 38352 ft | 488 kts | 314° |
| 2026-04-28 18:32 | 53.74649 | 2.34332 | 38381 ft | 486 kts | 315° |
| 2026-04-28 18:33 | 53.78978 | 2.25653 | 38395 ft | 479 kts | 315° |
| 2026-04-28 18:33 | 53.83274 | 2.17022 | 38402 ft | 479 kts | 315° |
| 2026-04-28 18:34 | 53.87570 | 2.08360 | 38402 ft | 480 kts | 315° |
| 2026-04-28 18:34 | 53.91837 | 1.99727 | 38426 ft | 481 kts | 315° |
| 2026-04-28 18:35 | 53.96144 | 1.90983 | 38429 ft | 483 kts | 315° |
| 2026-04-28 18:35 | 54.00450 | 1.82205 | 38421 ft | 484 kts | 315° |
| 2026-04-28 18:36 | 54.04758 | 1.73395 | 38431 ft | 484 kts | 315° |
| 2026-04-28 18:36 | 54.09060 | 1.64568 | 38430 ft | 484 kts | 315° |
| 2026-04-28 18:37 | 54.13326 | 1.55787 | 38418 ft | 484 kts | 315° |
| 2026-04-28 18:37 | 54.17608 | 1.46940 | 38433 ft | 483 kts | 315° |
| 2026-04-28 18:38 | 54.22103 | 1.38476 | 38445 ft | 479 kts | 319° |
| 2026-04-28 18:38 | 54.26739 | 1.30284 | 38437 ft | 478 kts | 320° |
| 2026-04-28 18:39 | 54.31365 | 1.22107 | 38441 ft | 477 kts | 320° |
| 2026-04-28 18:39 | 54.35927 | 1.13965 | 38447 ft | 476 kts | 320° |
| 2026-04-28 18:40 | 54.40502 | 1.05745 | 38434 ft | 476 kts | 320° |
| 2026-04-28 18:40 | 54.45067 | 0.97510 | 38454 ft | 475 kts | 320° |
| 2026-04-28 18:41 | 54.49625 | 0.89262 | 38431 ft | 476 kts | 320° |
| 2026-04-28 18:41 | 54.54178 | 0.80996 | 38453 ft | 475 kts | 320° |
| 2026-04-28 18:42 | 54.58717 | 0.72727 | 38462 ft | 475 kts | 320° |
| 2026-04-28 18:42 | 54.63221 | 0.64491 | 38463 ft | 475 kts | 319° |
| 2026-04-28 18:43 | 54.67748 | 0.56187 | 38467 ft | 475 kts | 319° |
| 2026-04-28 18:43 | 54.72278 | 0.47846 | 38461 ft | 475 kts | 319° |
| 2026-04-28 18:44 | 54.76798 | 0.39497 | 38458 ft | 475 kts | 319° |
| 2026-04-28 18:44 | 54.83547 | 0.26974 | 38470 ft | 475 kts | 319° |
| 2026-04-28 18:45 | 54.88062 | 0.18560 | 38478 ft | 475 kts | 319° |
| 2026-04-28 18:45 | 54.92541 | 0.10183 | 38475 ft | 476 kts | 319° |
| 2026-04-28 18:46 | 54.97039 | 0.01742 | 38481 ft | 476 kts | 319° |
| 2026-04-28 18:46 | 55.01524 | -0.06706 | 38464 ft | 474 kts | 318° |
| 2026-04-28 18:47 | 55.06000 | -0.15166 | 38478 ft | 473 kts | 318° |
| 2026-04-28 18:47 | 55.10389 | -0.23768 | 38484 ft | 475 kts | 315° |
| 2026-04-28 18:48 | 55.14621 | -0.32644 | 38480 ft | 475 kts | 315° |
| 2026-04-28 18:48 | 55.18842 | -0.41540 | 38488 ft | 475 kts | 315° |
| 2026-04-28 18:49 | 55.21650 | -0.47419 | 38490 ft | 474 kts | 315° |
| 2026-04-28 18:49 | 55.27301 | -0.59219 | 38478 ft | 474 kts | 315° |
| 2026-04-28 18:50 | 55.31543 | -0.68097 | 38496 ft | 474 kts | 315° |
| 2026-04-28 18:50 | 55.35768 | -0.76974 | 38495 ft | 474 kts | 315° |
| 2026-04-28 18:51 | 55.39991 | -0.85882 | 38501 ft | 474 kts | 315° |
| 2026-04-28 18:51 | 55.44187 | -0.94767 | 38501 ft | 474 kts | 315° |
| 2026-04-28 18:52 | 55.48396 | -1.03714 | 38510 ft | 474 kts | 315° |
| 2026-04-28 18:52 | 55.52597 | -1.12675 | 38467 ft | 474 kts | 314° |
| 2026-04-28 18:53 | 55.56795 | -1.21664 | 38502 ft | 473 kts | 314° |
| 2026-04-28 18:53 | 55.60978 | -1.30655 | 38511 ft | 473 kts | 314° |
| 2026-04-28 18:54 | 55.65155 | -1.39664 | 38509 ft | 473 kts | 314° |
| 2026-04-28 18:54 | 55.69302 | -1.48642 | 38510 ft | 474 kts | 314° |
| 2026-04-28 18:55 | 55.72771 | -1.56178 | 38511 ft | 474 kts | 314° |